Time;durP1;ratioP1;P1;durP2;ratioP2;P2;SDS_P1;SDS_P2;PMS_P1;PMS_P2;Temp;Humidity;BMP_temperature;BMP_pressure;BME280_temperature;BME280_humidity;BME280_pressure;Samples;Min_cycle;Max_cycle;Signal;HPM_P1;HPM_P2
2024/04/24 00:01:49;;;;;;;8.50;4.80;;;0.10;99.90;;;;;;1910548;75;25751;-85
2024/04/24 00:04:38;;;;;;;8.90;4.50;;;0.20;99.90;;;;;;1894010;75;25698;-85
2024/04/24 00:07:26;;;;;;;12.97;5.27;;;0.30;99.90;;;;;;1914592;74;25219;-86
2024/04/24 00:10:15;;;;;;;8.60;4.63;;;0.30;99.90;;;;;;1915990;75;25791;-86
2024/04/24 00:13:04;;;;;;;10.03;4.70;;;0.30;99.90;;;;;;1909161;75;25152;-85
2024/04/24 00:15:53;;;;;;;8.20;4.43;;;0.30;99.90;;;;;;1912628;75;25714;-85
2024/04/24 00:18:42;;;;;;;8.67;4.30;;;0.30;99.90;;;;;;1908614;75;25183;-86
2024/04/24 00:21:31;;;;;;;9.77;4.93;;;0.40;99.90;;;;;;1917600;74;25220;-85
2024/04/24 00:24:20;;;;;;;10.63;4.60;;;0.40;99.90;;;;;;1910711;73;25324;-87
2024/04/24 00:29:51;;;;;;;11.23;4.50;;;0.40;99.90;;;;;;1950231;72;27075;-85
2024/04/24 00:35:20;;;;;;;10.13;4.57;;;0.40;99.90;;;;;;1933987;72;27141;-86
2024/04/24 00:38:09;;;;;;;10.53;5.00;;;0.40;99.90;;;;;;1907094;75;25190;-86
2024/04/24 00:40:57;;;;;;;9.03;4.40;;;0.40;99.90;;;;;;1913038;73;25230;-86
2024/04/24 00:43:47;;;;;;;11.00;4.30;;;0.40;99.90;;;;;;1913671;75;25273;-86
2024/04/24 00:46:37;;;;;;;8.03;4.20;;;0.40;99.90;;;;;;1907077;73;25260;-85
2024/04/24 00:49:27;;;;;;;8.83;4.30;;;0.40;99.90;;;;;;1908772;74;25271;-85
2024/04/24 00:52:15;;;;;;;7.93;4.80;;;0.50;99.90;;;;;;1916619;73;25687;-86
2024/04/24 00:57:44;;;;;;;12.37;4.27;;;0.80;99.90;;;;;;1944225;72;27004;-85
2024/04/24 01:00:34;;;;;;;10.37;4.57;;;0.90;99.90;;;;;;1906965;75;25196;-85
2024/04/24 01:03:22;;;;;;;10.23;4.97;;;0.80;99.90;;;;;;1902807;75;25688;-85
2024/04/24 01:08:57;;;;;;;13.33;4.47;;;0.90;99.90;;;;;;1955580;72;26965;-85
2024/04/24 01:11:46;;;;;;;8.13;4.43;;;0.80;99.90;;;;;;1923817;73;25286;-85
2024/04/24 01:14:35;;;;;;;9.63;4.30;;;0.80;99.90;;;;;;1919770;73;25278;-85
2024/04/24 01:17:24;;;;;;;11.27;4.90;;;0.80;99.90;;;;;;1917531;75;25644;-85
2024/04/24 01:20:15;;;;;;;9.27;4.17;;;1.00;99.90;;;;;;1915771;73;25351;-86
2024/04/24 01:25:51;;;;;;;10.73;4.47;;;0.80;99.90;;;;;;1967323;72;27398;-86
2024/04/24 01:28:39;;;;;;;7.83;4.60;;;0.70;99.90;;;;;;1935533;74;25312;-85
2024/04/24 01:31:27;;;;;;;7.10;4.50;;;0.70;99.90;;;;;;1934194;74;25675;-85
2024/04/24 01:34:16;;;;;;;8.53;4.57;;;0.70;99.90;;;;;;1931229;74;25252;-85
2024/04/24 01:37:04;;;;;;;9.53;4.33;;;0.70;99.90;;;;;;1916863;73;25746;-86
2024/04/24 01:39:53;;;;;;;7.87;4.60;;;0.80;99.90;;;;;;1923923;72;25251;-85
2024/04/24 01:42:41;;;;;;;9.13;5.00;;;0.80;99.90;;;;;;1934352;74;25166;-86
2024/04/24 01:45:30;;;;;;;11.37;4.43;;;0.80;99.90;;;;;;1929640;72;25286;-86
2024/04/24 01:50:58;;;;;;;9.73;4.30;;;0.90;99.90;;;;;;1936524;74;27580;-86
2024/04/24 01:56:27;;;;;;;8.73;4.43;;;1.00;99.90;;;;;;1946533;72;27097;-85
2024/04/24 01:59:16;;;;;;;9.93;5.00;;;0.90;99.90;;;;;;1843204;77;25259;-85
2024/04/24 02:02:04;;;;;;;12.60;5.40;;;0.70;99.90;;;;;;1903970;75;25801;-86
2024/04/24 02:04:53;;;;;;;13.03;4.63;;;0.70;99.90;;;;;;1896905;75;25364;-87
2024/04/24 02:07:41;;;;;;;10.37;4.87;;;0.80;99.90;;;;;;1887256;75;25242;-85
2024/04/24 02:10:29;;;;;;;11.93;4.77;;;0.80;99.90;;;;;;1848660;77;25263;-86
2024/04/24 02:15:58;;;;;;;16.80;4.70;;;1.00;99.90;;;;;;1934423;72;27076;-85
2024/04/24 02:18:46;;;;;;;12.03;4.80;;;0.90;99.90;;;;;;1887723;75;25313;-85
2024/04/24 02:25:33;;;;;;;6.93;4.57;;;0.70;99.90;;;;;;2036506;69;27086;-85
2024/04/24 02:29:57;;;;;;;12.87;5.13;;;0.80;99.90;;;;;;1953033;72;27093;-86
2024/04/24 02:32:47;;;;;;;10.83;4.80;;;0.90;99.90;;;;;;1931897;73;25716;-86
2024/04/24 02:35:35;;;;;;;9.87;5.27;;;1.00;99.90;;;;;;1917614;73;25750;-86
2024/04/24 02:38:24;;;;;;;11.00;5.50;;;1.00;99.90;;;;;;1938137;73;25259;-85
2024/04/24 02:41:12;;;;;;;11.60;4.80;;;1.00;99.90;;;;;;1918103;73;25196;-86
2024/04/24 02:44:01;;;;;;;13.93;5.60;;;0.70;99.90;;;;;;1928285;73;25262;-84
2024/04/24 02:46:49;;;;;;;14.67;5.30;;;0.60;99.90;;;;;;1917963;73;25373;-84
2024/04/24 02:49:38;;;;;;;12.53;5.40;;;0.60;99.90;;;;;;1922704;73;25253;-86
2024/04/24 02:52:27;;;;;;;15.87;5.30;;;0.70;99.90;;;;;;1938409;73;25731;-84
2024/04/24 02:55:16;;;;;;;9.33;5.30;;;0.70;99.90;;;;;;1907382;75;25250;-83
2024/04/24 02:58:05;;;;;;;11.53;5.37;;;0.70;99.90;;;;;;1898530;75;25274;-87
2024/04/24 03:03:33;;;;;;;12.63;5.37;;;0.90;99.90;;;;;;1941764;72;27665;-85
2024/04/24 03:09:02;;;;;;;12.00;5.77;;;1.00;99.90;;;;;;2031079;69;27023;-85
2024/04/24 03:11:51;;;;;;;10.83;5.13;;;1.20;99.90;;;;;;1985443;72;25230;-86
2024/04/24 03:14:39;;;;;;;9.87;5.23;;;1.10;99.90;;;;;;1982895;72;25218;-85
2024/04/24 03:17:28;;;;;;;13.10;5.37;;;1.00;99.90;;;;;;1979269;72;25361;-86
2024/04/24 03:20:18;;;;;;;13.57;5.60;;;0.90;99.90;;;;;;1906553;75;25229;-85
2024/04/24 03:23:07;;;;;;;13.60;5.80;;;0.90;99.90;;;;;;1962465;72;25692;-86
2024/04/24 03:25:56;;;;;;;11.37;5.50;;;0.90;99.90;;;;;;1915185;75;25242;-85
2024/04/24 03:28:44;;;;;;;10.60;5.03;;;0.80;99.90;;;;;;1962055;72;25815;-85
2024/04/24 03:31:34;;;;;;;13.33;5.80;;;0.70;99.90;;;;;;1903538;75;25309;-87
2024/04/24 03:34:23;;;;;;;11.20;5.73;;;0.60;99.90;;;;;;1962279;72;25316;-86
2024/04/24 03:37:12;;;;;;;11.77;5.40;;;0.50;99.90;;;;;;1984220;72;25283;-84
2024/04/24 03:42:45;;;;;;;13.63;5.87;;;0.60;99.90;;;;;;1934960;72;27448;-85
2024/04/24 03:48:19;;;;;;;13.80;6.87;;;0.80;99.90;;;;;;1952265;72;27064;-85
2024/04/24 03:51:08;;;;;;;19.43;5.70;;;0.80;99.90;;;;;;1944364;73;25251;-85
2024/04/24 03:53:57;;;;;;;14.73;7.37;;;0.70;99.90;;;;;;1914474;75;25198;-85
2024/04/24 03:56:45;;;;;;;25.13;7.80;;;0.60;99.90;;;;;;1899254;75;25242;-85
2024/04/24 03:59:34;;;;;;;14.10;7.33;;;0.80;99.90;;;;;;1895858;75;25268;-85
2024/04/24 04:02:23;;;;;;;15.57;8.10;;;0.90;99.90;;;;;;1891830;75;25252;-86
2024/04/24 04:05:12;;;;;;;14.50;7.13;;;0.80;99.90;;;;;;1908426;75;25273;-86
2024/04/24 04:08:00;;;;;;;15.40;7.80;;;0.80;99.90;;;;;;1916171;75;25275;-85
2024/04/24 04:10:49;;;;;;;15.07;7.87;;;0.80;99.90;;;;;;1900762;75;25187;-85
2024/04/24 04:13:38;;;;;;;12.17;6.47;;;1.00;99.90;;;;;;1905297;75;25167;-85
2024/04/24 04:16:28;;;;;;;16.03;7.20;;;1.10;99.90;;;;;;1898760;74;25230;-85
2024/04/24 04:19:16;;;;;;;15.23;6.70;;;1.10;99.90;;;;;;1912070;75;25235;-84
2024/04/24 04:22:05;;;;;;;13.23;6.80;;;1.10;99.90;;;;;;1895142;75;25248;-84
2024/04/24 04:27:34;;;;;;;13.33;6.93;;;1.30;99.90;;;;;;1936953;72;27641;-85
2024/04/24 04:30:22;;;;;;;11.73;6.23;;;1.40;99.90;;;;;;1887642;75;25302;-85
2024/04/24 04:33:13;;;;;;;12.50;6.00;;;1.40;99.90;;;;;;1884537;75;25628;-86
2024/04/24 04:36:05;;;;;;;11.90;5.70;;;1.50;99.90;;;;;;1903147;75;25162;-85
2024/04/24 04:38:53;;;;;;;11.27;5.87;;;1.60;99.90;;;;;;1890701;75;25291;-85
2024/04/24 04:41:42;;;;;;;12.23;5.60;;;1.60;99.90;;;;;;1895301;75;25596;-85
2024/04/24 04:44:31;;;;;;;12.03;5.10;;;1.70;99.90;;;;;;1907883;75;25205;-84
2024/04/24 04:47:19;;;;;;;18.03;6.03;;;1.80;99.90;;;;;;1828807;77;25249;-84
2024/04/24 04:50:08;;;;;;;8.67;5.17;;;1.80;99.90;;;;;;1887925;75;25195;-84
2024/04/24 04:52:57;;;;;;;16.80;6.03;;;1.80;99.90;;;;;;1888226;75;25184;-84
2024/04/24 04:55:46;;;;;;;19.00;5.47;;;1.80;99.90;;;;;;1832307;77;25268;-85
2024/04/24 04:58:35;;;;;;;13.90;5.70;;;1.90;99.90;;;;;;1868247;75;25271;-85
2024/04/24 05:01:24;;;;;;;18.43;5.13;;;2.00;99.90;;;;;;1836730;77;25185;-84
2024/04/24 05:07:03;;;;;;;9.53;4.50;;;2.30;99.90;;;;;;1948187;72;27108;-86
2024/04/24 05:09:51;;;;;;;14.17;4.87;;;2.40;99.90;;;;;;1879142;76;25292;-86
2024/04/24 05:12:40;;;;;;;12.23;4.77;;;2.40;99.90;;;;;;1929174;73;25251;-86
2024/04/24 05:15:29;;;;;;;16.27;5.17;;;2.70;99.90;;;;;;1927218;73;25563;-85
2024/04/24 05:18:18;;;;;;;13.83;4.80;;;2.80;99.90;;;;;;1938436;73;25841;-86
2024/04/24 05:21:08;;;;;;;14.90;4.70;;;2.80;99.90;;;;;;1927894;73;25286;-84
2024/04/24 05:23:57;;;;;;;6.80;3.87;;;2.90;99.90;;;;;;1920412;73;25160;-84
2024/04/24 05:29:52;;;;;;;5.73;3.30;;;3.10;99.90;;;;;;1920432;73;25239;-83
2024/04/24 05:32:42;;;;;;;5.60;3.20;;;3.20;99.90;;;;;;1944271;73;25228;-83
2024/04/24 05:35:31;;;;;;;6.80;2.80;;;3.30;99.90;;;;;;1924729;73;25242;-83
2024/04/24 05:38:20;;;;;;;6.73;2.63;;;3.30;99.90;;;;;;1929887;73;25275;-84
2024/04/24 05:41:09;;;;;;;7.90;2.57;;;3.30;99.90;;;;;;1933254;73;25170;-84
2024/04/24 05:43:58;;;;;;;8.23;2.97;;;3.50;99.90;;;;;;1929226;73;25274;-82
2024/04/24 05:46:46;;;;;;;7.60;3.20;;;3.80;99.90;;;;;;1928900;73;25216;-84
2024/04/24 05:49:35;;;;;;;7.57;2.53;;;4.00;99.90;;;;;;1929166;73;26471;-86
2024/04/24 05:52:24;;;;;;;5.20;2.40;;;4.10;99.90;;;;;;1924726;73;25209;-84
2024/04/24 05:57:54;;;;;;;7.67;2.67;;;4.30;99.90;;;;;;1967349;72;27030;-85
2024/04/24 06:03:23;;;;;;;5.20;2.60;;;4.40;99.90;;;;;;1965935;72;27020;-85
2024/04/24 06:06:12;;;;;;;5.63;2.50;;;4.40;99.90;;;;;;1939983;72;25332;-85
2024/04/24 06:09:01;;;;;;;9.00;2.67;;;4.40;99.90;;;;;;1930289;72;25182;-85
2024/04/24 06:11:49;;;;;;;8.67;2.60;;;4.50;99.90;;;;;;1906727;75;25169;-85
2024/04/24 06:14:38;;;;;;;4.97;2.40;;;4.80;99.90;;;;;;1908490;75;26456;-85
2024/04/24 06:17:26;;;;;;;9.30;2.33;;;5.10;99.90;;;;;;1871222;75;25172;-85
2024/04/24 06:20:16;;;;;;;7.03;2.33;;;5.20;99.90;;;;;;1895783;75;25245;-85
2024/04/24 06:23:06;;;;;;;7.40;2.40;;;5.20;99.90;;;;;;1883718;75;25230;-85
2024/04/24 06:25:54;;;;;;;11.63;2.40;;;5.10;99.90;;;;;;1885712;75;26771;-85
2024/04/24 06:28:43;;;;;;;4.37;1.80;;;5.20;99.90;;;;;;1898946;75;25699;-85
2024/04/24 06:31:31;;;;;;;2.93;2.20;;;5.20;99.90;;;;;;1875990;75;25191;-85
2024/04/24 06:34:19;;;;;;;2.60;1.73;;;5.40;99.90;;;;;;1891150;75;25298;-83
2024/04/24 06:39:48;;;;;;;4.23;1.80;;;5.70;99.90;;;;;;1923916;72;27108;-84
2024/04/24 06:45:16;;;;;;;3.40;2.07;;;5.80;99.90;;;;;;1929674;72;27461;-85
2024/04/24 06:48:06;;;;;;;4.03;1.80;;;5.90;99.90;;;;;;1891133;74;25311;-85
2024/04/24 06:53:39;;;;;;;4.60;1.73;;;6.10;99.90;;;;;;1946309;72;27202;-85
2024/04/24 06:56:27;;;;;;;8.40;1.97;;;6.00;99.90;;;;;;1846751;77;25208;-85
2024/04/24 06:59:17;;;;;;;6.23;2.40;;;6.30;99.90;;;;;;1889573;74;25292;-85
2024/04/24 07:02:06;;;;;;;4.27;1.90;;;6.60;99.90;;;;;;1888186;74;25344;-84
2024/04/24 07:04:55;;;;;;;3.60;2.27;;;6.60;99.90;;;;;;1900083;75;25732;-85
2024/04/24 07:07:43;;;;;;;7.83;2.70;;;6.50;99.90;;;;;;1894525;75;25268;-84
2024/04/24 07:10:32;;;;;;;6.63;2.40;;;6.70;99.90;;;;;;1906211;74;25252;-84
2024/04/24 07:16:01;;;;;;;3.63;2.20;;;6.70;99.90;;;;;;1948710;72;27082;-86
2024/04/24 07:21:30;;;;;;;6.40;2.47;;;6.80;99.90;;;;;;1961121;72;27100;-85
2024/04/24 07:24:19;;;;;;;3.60;1.90;;;6.80;99.90;;;;;;1936986;73;25267;-85
2024/04/24 07:27:07;;;;;;;3.70;1.93;;;6.80;99.90;;;;;;1925134;73;25171;-85
2024/04/24 07:29:55;;;;;;;3.43;1.90;;;7.10;99.90;;;;;;1923828;73;25211;-85
2024/04/24 07:32:44;;;;;;;2.40;1.70;;;7.40;99.90;;;;;;1932729;73;25959;-85
2024/04/24 07:35:33;;;;;;;4.23;1.97;;;7.50;99.90;;;;;;1939752;73;25175;-85
2024/04/24 07:38:22;;;;;;;1.70;1.50;;;7.60;99.90;;;;;;1918477;73;25276;-85
2024/04/24 07:41:11;;;;;;;3.60;1.80;;;7.50;99.90;;;;;;1917061;73;25264;-85
2024/04/24 07:43:59;;;;;;;3.00;1.80;;;7.50;99.90;;;;;;1922820;73;25213;-85
2024/04/24 07:50:07;;;;;;;2.80;1.90;;;7.60;99.90;;;;;;1989617;71;26965;-85
2024/04/24 07:52:56;;;;;;;1.40;1.30;;;7.70;99.90;;;;;;1953233;73;25312;-82
2024/04/24 07:55:45;;;;;;;1.27;1.17;;;7.60;99.90;;;;;;2008492;70;25740;-83
2024/04/24 07:58:33;;;;;;;3.73;1.37;;;7.70;99.90;;;;;;2021853;70;25613;-83
2024/04/24 08:01:22;;;;;;;1.03;0.93;;;7.80;99.90;;;;;;2015761;70;25250;-83
2024/04/24 08:04:12;;;;;;;1.67;1.00;;;7.90;99.90;;;;;;1947670;73;25167;-83
2024/04/24 08:09:40;;;;;;;1.07;1.00;;;8.10;99.90;;;;;;1930534;72;26967;-85
2024/04/24 08:12:28;;;;;;;5.07;2.07;;;8.30;99.90;;;;;;1907396;74;25791;-85
2024/04/24 08:15:17;;;;;;;2.20;1.63;;;8.50;99.90;;;;;;1910009;74;25721;-83
2024/04/24 08:18:06;;;;;;;2.17;1.87;;;8.90;99.90;;;;;;1898024;74;25359;-82
2024/04/24 08:20:56;;;;;;;2.23;1.43;;;9.10;99.90;;;;;;1897369;74;25336;-83
2024/04/24 08:23:46;;;;;;;3.67;2.00;;;9.10;99.90;;;;;;1916143;75;25396;-83
2024/04/24 08:26:35;;;;;;;1.93;1.70;;;9.10;99.90;;;;;;1885435;74;25287;-83
2024/04/24 08:29:25;;;;;;;2.27;1.70;;;9.00;99.90;;;;;;1896515;74;25241;-83
2024/04/24 08:32:14;;;;;;;4.13;2.10;;;8.90;99.90;;;;;;1909171;74;25172;-82
2024/04/24 08:35:02;;;;;;;2.13;1.87;;;8.80;99.90;;;;;;1906868;74;25173;-83
2024/04/24 08:37:51;;;;;;;2.70;2.03;;;9.00;99.90;;;;;;1900296;74;25291;-84
2024/04/24 08:43:19;;;;;;;4.00;1.90;;;8.70;99.90;;;;;;1934888;72;26858;-82
2024/04/24 08:48:47;;;;;;;3.37;1.83;;;8.60;99.90;;;;;;2003205;71;27712;-85
2024/04/24 08:51:38;;;;;;;3.07;1.83;;;8.90;99.90;;;;;;1949081;72;25303;-84
2024/04/24 08:54:29;;;;;;;1.60;1.50;;;9.00;99.90;;;;;;1942773;72;25246;-84
2024/04/24 09:00:02;;;;;;;2.27;1.43;;;9.00;99.90;;;;;;1931949;72;27511;-85
2024/04/24 09:05:34;;;;;;;1.63;1.40;;;9.30;99.90;;;;;;1957991;72;27004;-84
2024/04/24 09:08:24;;;;;;;1.47;1.37;;;9.30;99.90;;;;;;1949405;72;25249;-84
2024/04/24 09:11:13;;;;;;;2.23;1.47;;;9.60;99.90;;;;;;1956866;73;25219;-85
2024/04/24 09:14:03;;;;;;;3.10;1.70;;;9.60;99.90;;;;;;1955033;72;25625;-85
2024/04/24 09:19:31;;;;;;;2.00;1.60;;;9.80;99.90;;;;;;1933323;72;27080;-84
2024/04/24 09:22:21;;;;;;;3.23;1.53;;;9.60;99.90;;;;;;1912137;74;25278;-84
2024/04/24 09:27:53;;;;;;;2.70;1.80;;;9.90;99.90;;;;;;1955853;72;27019;-84
2024/04/24 09:30:42;;;;;;;1.93;1.40;;;10.00;99.90;;;;;;1923634;73;25234;-84
2024/04/24 09:33:30;;;;;;;1.30;1.20;;;10.00;99.90;;;;;;1928888;73;25697;-84
2024/04/24 09:36:19;;;;;;;1.50;1.40;;;9.80;99.90;;;;;;1929327;73;25356;-84
2024/04/24 09:39:09;;;;;;;2.00;1.47;;;9.60;99.90;;;;;;1923288;73;25331;-84
2024/04/24 09:41:58;;;;;;;1.60;1.47;;;9.70;99.90;;;;;;1923236;73;25734;-84
2024/04/24 09:44:47;;;;;;;1.60;1.50;;;9.90;99.90;;;;;;1920559;73;25283;-84
2024/04/24 09:50:16;;;;;;;1.97;1.80;;;9.70;99.90;;;;;;1937515;72;27126;-84
2024/04/24 09:53:05;;;;;;;1.97;1.73;;;9.40;99.90;;;;;;1905423;74;26693;-84
2024/04/24 09:58:36;;;;;;;2.07;1.87;;;9.30;99.90;;;;;;1942954;72;27102;-83
2024/04/24 10:01:26;;;;;;;3.30;2.20;;;9.30;99.90;;;;;;1912068;73;25176;-84
2024/04/24 10:06:57;;;;;;;3.23;2.40;;;9.20;99.90;;;;;;1957751;72;27096;-85
2024/04/24 10:12:31;;;;;;;2.73;1.93;;;9.60;99.90;;;;;;1925454;72;26823;-84
2024/04/24 10:18:05;;;;;;;4.37;1.90;;;10.10;99.90;;;;;;1953538;72;27085;-85
2024/04/24 10:20:53;;;;;;;2.87;2.00;;;10.10;99.90;;;;;;1909021;75;25262;-85
2024/04/24 10:23:43;;;;;;;2.80;2.13;;;9.90;99.90;;;;;;1914547;75;25262;-84
2024/04/24 10:26:32;;;;;;;2.97;2.20;;;9.70;99.90;;;;;;1892227;75;25772;-84
2024/04/24 10:29:21;;;;;;;3.03;1.90;;;9.50;99.90;;;;;;1904935;75;25166;-85
2024/04/24 10:32:12;;;;;;;1.73;1.50;;;9.50;99.90;;;;;;1914087;75;25796;-85
2024/04/24 10:35:02;;;;;;;1.50;1.40;;;9.90;99.90;;;;;;1916680;75;25239;-84
2024/04/24 10:40:32;;;;;;;1.20;1.10;;;9.80;99.90;;;;;;1924739;72;27083;-85
2024/04/24 10:46:02;;;;;;;2.00;1.33;;;9.90;99.90;;;;;;1947036;72;27024;-85
2024/04/24 10:48:58;;;;;;;1.70;1.50;;;10.10;99.90;;;;;;1901520;73;25717;-85
2024/04/24 10:51:48;;;;;;;1.77;1.50;;;10.30;99.90;;;;;;1880495;75;25241;-83
2024/04/24 10:57:32;;;;;;;2.70;1.70;;;10.70;99.90;;;;;;1929200;72;27022;-83
2024/04/24 11:00:22;;;;;;;2.90;1.50;;;10.50;99.90;;;;;;1912100;75;25257;-84
2024/04/24 11:03:12;;;;;;;3.13;1.90;;;10.50;99.90;;;;;;1905321;75;25843;-84
2024/04/24 11:06:11;;;;;;;1.73;1.63;;;10.90;99.90;;;;;;1903518;75;25803;-84
2024/04/24 11:09:00;;;;;;;2.90;1.70;;;10.50;99.90;;;;;;1906379;75;25228;-84
2024/04/24 11:11:53;;;;;;;3.47;1.57;;;10.00;99.90;;;;;;1909290;75;25178;-84
2024/04/24 11:14:41;;;;;;;2.83;1.90;;;9.60;99.90;;;;;;1899353;75;25693;-84
2024/04/24 11:17:30;;;;;;;5.17;1.97;;;9.00;99.90;;;;;;1910013;75;25233;-84
2024/04/24 11:20:19;;;;;;;1.87;1.60;;;9.00;99.90;;;;;;1903990;75;25169;-84
2024/04/24 11:23:09;;;;;;;4.30;2.20;;;9.40;99.90;;;;;;1893941;75;25248;-84
2024/04/24 11:28:41;;;;;;;5.33;2.17;;;9.90;99.90;;;;;;1940641;72;26966;-84
2024/04/24 11:34:11;;;;;;;5.17;2.17;;;9.60;99.90;;;;;;1940376;72;27075;-84
2024/04/24 11:37:00;;;;;;;3.83;2.23;;;9.50;99.90;;;;;;1898386;75;25205;-85
2024/04/24 11:39:49;;;;;;;3.57;2.23;;;9.60;99.90;;;;;;1889073;75;25157;-85
2024/04/24 11:42:42;;;;;;;3.17;2.37;;;9.70;99.90;;;;;;1887721;75;25289;-82
2024/04/24 11:45:31;;;;;;;3.77;2.20;;;9.50;99.90;;;;;;1895809;75;25269;-84
2024/04/24 11:48:25;;;;;;;3.93;2.40;;;9.60;99.90;;;;;;1883715;75;25287;-84
2024/04/24 11:51:13;;;;;;;3.43;2.73;;;9.20;99.90;;;;;;1829851;77;25251;-83
2024/04/24 11:54:02;;;;;;;2.87;2.07;;;8.90;99.90;;;;;;1900688;75;25206;-83
2024/04/24 11:56:51;;;;;;;3.50;2.43;;;8.60;99.90;;;;;;1885283;76;25318;-82
2024/04/24 11:59:44;;;;;;;5.17;2.73;;;8.60;99.90;;;;;;1878754;76;25302;-85
2024/04/24 12:02:34;;;;;;;3.63;2.53;;;8.50;99.90;;;;;;1881389;76;25199;-85
2024/04/24 12:08:07;;;;;;;4.77;2.27;;;8.90;99.90;;;;;;1947825;72;27021;-84
2024/04/24 12:10:58;;;;;;;4.67;2.50;;;8.70;99.90;;;;;;1889392;74;25306;-85
2024/04/24 12:13:48;;;;;;;2.47;2.07;;;8.50;99.90;;;;;;1893317;75;25265;-85
2024/04/24 12:19:19;;;;;;;5.40;2.40;;;8.40;99.90;;;;;;1939427;72;27049;-84
2024/04/24 12:22:07;;;;;;;2.00;1.80;;;8.40;99.90;;;;;;1927969;73;25272;-85
2024/04/24 12:24:56;;;;;;;2.67;2.00;;;8.40;99.90;;;;;;1947270;73;25167;-84
2024/04/24 12:30:30;;;;;;;2.47;2.23;;;8.50;99.90;;;;;;1947276;72;27020;-85
2024/04/24 12:35:59;;;;;;;3.93;2.07;;;8.90;99.90;;;;;;1943549;72;27008;-85
2024/04/24 12:38:48;;;;;;;3.93;2.03;;;8.70;99.90;;;;;;1924846;73;25257;-84
2024/04/24 12:41:38;;;;;;;2.30;2.10;;;8.90;99.90;;;;;;1853706;76;25322;-85
2024/04/24 12:44:26;;;;;;;2.23;2.03;;;9.00;99.90;;;;;;1856984;76;25184;-84
2024/04/24 12:47:16;;;;;;;2.30;2.00;;;9.20;99.90;;;;;;1913854;73;25704;-84
2024/04/24 12:50:05;;;;;;;3.30;2.00;;;9.20;99.90;;;;;;1865315;76;25328;-85
2024/04/24 12:55:38;;;;;;;2.97;1.80;;;9.20;99.90;;;;;;1922522;72;26965;-85
2024/04/24 12:58:27;;;;;;;4.33;1.90;;;9.30;99.90;;;;;;1871924;75;25223;-84
2024/04/24 13:01:19;;;;;;;2.20;1.87;;;9.20;99.90;;;;;;1841322;77;25237;-85
2024/04/24 13:04:08;;;;;;;3.73;1.70;;;9.00;99.90;;;;;;1797126;80;25213;-85
2024/04/24 13:06:57;;;;;;;1.70;1.60;;;9.00;99.90;;;;;;1886139;75;25648;-85
2024/04/24 13:09:45;;;;;;;2.60;1.77;;;9.20;99.90;;;;;;1855201;76;25714;-84
2024/04/24 13:12:35;;;;;;;3.63;1.60;;;9.30;99.90;;;;;;1882061;76;25201;-85
2024/04/24 13:15:24;;;;;;;3.13;1.77;;;9.20;99.90;;;;;;1848469;77;25341;-85
2024/04/24 13:18:15;;;;;;;1.60;1.30;;;9.30;99.90;;;;;;1826831;77;25192;-85
2024/04/24 13:21:02;;;;;;;4.57;1.50;;;9.20;99.90;;;;;;1892914;75;25737;-84
2024/04/24 13:26:32;;;;;;;5.13;1.37;;;9.00;99.90;;;;;;1938663;72;27527;-83
2024/04/24 13:29:21;;;;;;;4.47;1.50;;;8.90;99.90;;;;;;1902279;75;25218;-82
2024/04/24 13:34:54;;;;;;;1.73;1.40;;;9.10;99.90;;;;;;1939556;72;27051;-85
2024/04/24 13:37:42;;;;;;;3.40;1.33;;;9.00;99.90;;;;;;1919415;73;25224;-85
2024/04/24 13:40:30;;;;;;;1.90;1.30;;;8.80;99.90;;;;;;1921658;73;25253;-84
2024/04/24 13:43:19;;;;;;;1.40;1.30;;;8.80;99.90;;;;;;1909023;74;25205;-84
2024/04/24 13:46:07;;;;;;;5.00;1.50;;;8.80;99.90;;;;;;1918169;73;25783;-85
2024/04/24 13:48:56;;;;;;;1.40;1.30;;;8.80;99.90;;;;;;1953439;73;25195;-84
2024/04/24 13:51:45;;;;;;;1.50;1.40;;;8.80;99.90;;;;;;1944225;73;25759;-83
2024/04/24 13:54:38;;;;;;;3.17;1.50;;;8.90;99.90;;;;;;1880905;74;25325;-84
2024/04/24 13:57:27;;;;;;;1.73;1.27;;;8.90;99.90;;;;;;1912117;73;25750;-84
2024/04/24 14:00:17;;;;;;;2.23;1.80;;;9.00;99.90;;;;;;1908649;73;25755;-83
2024/04/24 14:03:06;;;;;;;2.00;1.80;;;8.90;99.90;;;;;;1908861;73;25301;-83
2024/04/24 14:05:56;;;;;;;2.20;1.60;;;8.70;99.90;;;;;;1884075;75;25319;-82
2024/04/24 14:08:50;;;;;;;1.90;1.67;;;8.50;99.90;;;;;;1912319;73;25325;-85
2024/04/24 14:11:35;;;;;;;2.00;1.47;;;8.40;99.90;;;;;;1929654;73;25294;-83
2024/04/24 14:14:24;;;;;;;2.17;1.70;;;8.40;99.90;;;;;;1900360;73;26523;-85
2024/04/24 14:17:13;;;;;;;1.43;1.33;;;8.10;99.90;;;;;;1918847;73;25307;-82
2024/04/24 14:22:54;;;;;;;2.83;1.63;;;8.00;99.90;;;;;;1957594;72;27517;-84
2024/04/24 14:25:42;;;;;;;4.80;1.60;;;7.90;99.90;;;;;;1932728;73;26300;-84
2024/04/24 14:31:09;;;;;;;4.47;2.03;;;7.70;99.90;;;;;;1944833;72;27519;-85
2024/04/24 14:33:58;;;;;;;5.33;2.10;;;7.50;99.90;;;;;;1895050;75;25328;-84
2024/04/24 14:36:47;;;;;;;5.90;2.00;;;7.60;99.90;;;;;;1898218;75;25234;-84
2024/04/24 14:39:37;;;;;;;5.43;2.23;;;7.40;99.90;;;;;;1897061;75;25250;-85
2024/04/24 14:42:25;;;;;;;4.90;2.10;;;7.20;99.90;;;;;;1892714;75;25355;-85
2024/04/24 14:47:54;;;;;;;2.83;2.00;;;7.30;99.90;;;;;;1951939;72;26810;-85
2024/04/24 14:50:44;;;;;;;6.20;2.10;;;7.30;99.90;;;;;;1900111;74;25167;-85
2024/04/24 14:53:33;;;;;;;6.67;2.30;;;7.20;99.90;;;;;;1884491;75;25285;-84
2024/04/24 14:59:01;;;;;;;5.17;2.30;;;7.20;99.90;;;;;;1932618;72;26875;-85
2024/04/24 15:01:50;;;;;;;4.93;2.40;;;7.00;99.90;;;;;;1880083;76;25270;-85
2024/04/24 15:04:40;;;;;;;3.53;2.43;;;7.00;99.90;;;;;;1875611;75;25276;-85
2024/04/24 15:07:28;;;;;;;4.83;2.40;;;7.00;99.90;;;;;;1911251;73;25316;-85
2024/04/24 15:10:17;;;;;;;2.97;2.37;;;7.00;99.90;;;;;;1863908;75;25246;-84
2024/04/24 15:13:06;;;;;;;5.03;2.60;;;6.70;99.90;;;;;;1848674;76;25305;-85
2024/04/24 15:15:54;;;;;;;6.00;2.60;;;6.50;99.90;;;;;;1868562;75;25276;-85
2024/04/24 15:18:44;;;;;;;5.67;3.00;;;6.50;99.90;;;;;;1911940;75;25184;-84
2024/04/24 15:21:46;;;;;;;5.57;2.97;;;6.50;99.90;;;;;;1863578;75;25178;-85
2024/04/24 15:24:35;;;;;;;7.57;2.80;;;6.60;99.90;;;;;;1889933;75;25244;-85
2024/04/24 15:27:25;;;;;;;3.83;2.60;;;6.70;99.90;;;;;;1861158;75;25189;-85
2024/04/24 15:30:17;;;;;;;4.10;2.50;;;6.80;99.90;;;;;;1926418;72;25259;-86
2024/04/24 15:35:50;;;;;;;6.03;2.90;;;7.10;99.90;;;;;;1932723;74;27518;-85
2024/04/24 15:41:18;;;;;;;5.30;2.60;;;7.10;99.90;;;;;;1951908;72;27178;-85
2024/04/24 15:44:07;;;;;;;3.47;2.23;;;7.10;99.90;;;;;;1892453;75;25303;-84
2024/04/24 15:46:56;;;;;;;3.57;2.10;;;7.10;99.90;;;;;;1905897;75;25255;-85
2024/04/24 15:49:44;;;;;;;6.53;2.03;;;7.10;99.90;;;;;;1907625;75;25215;-85
2024/04/24 15:52:33;;;;;;;3.50;2.20;;;7.20;99.90;;;;;;1893623;75;25170;-84
2024/04/24 15:55:23;;;;;;;2.67;2.03;;;7.20;99.90;;;;;;1864817;75;25337;-84
2024/04/24 15:58:12;;;;;;;5.23;2.53;;;6.90;99.90;;;;;;1863378;76;25175;-85
2024/04/24 16:01:00;;;;;;;3.60;2.57;;;7.00;99.90;;;;;;1860069;76;25303;-84
2024/04/24 16:03:49;;;;;;;5.27;2.40;;;7.10;99.90;;;;;;1873097;76;25300;-84
2024/04/24 16:09:17;;;;;;;4.50;2.30;;;6.90;99.90;;;;;;1943505;72;27010;-85
2024/04/24 16:12:07;;;;;;;5.43;2.37;;;6.90;99.90;;;;;;1895749;73;25762;-85
2024/04/24 16:14:57;;;;;;;2.07;1.80;;;6.80;99.90;;;;;;1905191;75;25246;-84
2024/04/24 16:20:29;;;;;;;8.87;2.00;;;6.70;99.90;;;;;;1934822;72;27029;-85
2024/04/24 16:23:17;;;;;;;3.50;2.13;;;6.70;99.90;;;;;;1891510;75;25245;-85
2024/04/24 16:26:07;;;;;;;4.33;2.00;;;6.70;99.90;;;;;;1891855;75;25640;-84
2024/04/24 16:28:57;;;;;;;4.80;2.20;;;6.70;99.90;;;;;;1890490;75;25265;-84
2024/04/24 16:31:45;;;;;;;3.80;2.17;;;6.60;99.90;;;;;;1907853;75;25251;-85
2024/04/24 16:34:34;;;;;;;2.27;1.97;;;6.60;99.90;;;;;;1896577;75;25172;-84
2024/04/24 16:37:24;;;;;;;1.80;1.70;;;6.60;99.90;;;;;;1885922;75;25176;-84
2024/04/24 16:40:14;;;;;;;4.00;1.70;;;6.70;99.90;;;;;;1895050;75;25227;-86
2024/04/24 16:43:03;;;;;;;3.83;1.90;;;6.50;99.90;;;;;;1897403;75;25255;-86
2024/04/24 16:45:52;;;;;;;2.83;2.00;;;6.50;99.90;;;;;;1893066;75;25742;-86
2024/04/24 16:48:40;;;;;;;4.17;2.20;;;6.60;99.90;;;;;;1830478;77;25239;-85
2024/04/24 16:51:29;;;;;;;3.10;1.80;;;6.70;99.90;;;;;;1895225;75;25643;-85
2024/04/24 16:54:18;;;;;;;2.70;1.67;;;6.70;99.90;;;;;;1893303;75;25264;-84
2024/04/24 16:57:06;;;;;;;4.27;1.90;;;6.70;99.90;;;;;;1883878;76;25706;-84
2024/04/24 16:59:55;;;;;;;3.97;1.77;;;6.70;99.90;;;;;;1879400;76;25222;-84
2024/04/24 17:02:44;;;;;;;2.00;1.77;;;6.60;99.90;;;;;;1881205;76;25423;-85
2024/04/24 17:08:14;;;;;;;2.70;1.70;;;6.70;99.90;;;;;;1965423;72;27002;-85
2024/04/24 17:11:03;;;;;;;1.87;1.73;;;6.70;99.90;;;;;;1934895;73;25744;-86
2024/04/24 17:13:52;;;;;;;3.83;1.90;;;6.60;99.90;;;;;;1948683;72;25194;-85
2024/04/24 17:16:41;;;;;;;5.60;1.70;;;6.60;99.90;;;;;;1924103;72;25274;-86
2024/04/24 17:19:30;;;;;;;2.87;1.77;;;6.60;99.90;;;;;;1945498;72;25255;-85
2024/04/24 17:22:19;;;;;;;4.17;2.07;;;6.60;99.90;;;;;;1942851;73;25151;-86
2024/04/24 17:25:08;;;;;;;5.37;1.90;;;6.50;99.90;;;;;;1948703;73;25170;-85
2024/04/24 17:27:56;;;;;;;3.10;1.90;;;6.40;99.90;;;;;;1934041;73;25206;-86